Time;durP1;ratioP1;P1;durP2;ratioP2;P2;SDS_P1;SDS_P2;PMS_P1;PMS_P2;Temp;Humidity;BMP_temperature;BMP_pressure;BME280_temperature;BME280_humidity;BME280_pressure;Samples;Min_cycle;Max_cycle;Signal;HPM_P1;HPM_P2
2022/04/24 00:01:30;;;;;;;118.20;107.90;;;12.80;52.90;;;;;;5055686;28;20501;-75
2022/04/24 00:03:57;;;;;;;118.32;107.97;;;12.70;52.80;;;;;;5055507;28;20618;-74
2022/04/24 00:06:24;;;;;;;117.13;106.85;;;12.80;52.80;;;;;;5055662;28;20463;-74
2022/04/24 00:08:52;;;;;;;117.55;107.30;;;12.70;52.90;;;;;;5057347;28;20048;-74
2022/04/24 00:11:20;;;;;;;117.47;106.80;;;12.70;52.90;;;;;;5073894;28;20056;-74
2022/04/24 00:13:47;;;;;;;116.95;106.75;;;12.70;52.90;;;;;;5072487;28;20056;-74
2022/04/24 00:16:14;;;;;;;118.47;107.78;;;12.80;52.90;;;;;;5072682;28;20045;-75
2022/04/24 00:18:41;;;;;;;116.90;106.47;;;12.80;52.80;;;;;;5072439;28;20049;-74
2022/04/24 00:21:09;;;;;;;117.07;107.05;;;12.80;52.80;;;;;;5072715;28;20048;-74
2022/04/24 00:23:36;;;;;;;116.63;106.53;;;12.70;52.80;;;;;;5072795;28;20128;-74
2022/04/24 00:26:04;;;;;;;117.30;107.13;;;12.70;52.90;;;;;;5072286;28;20048;-75
2022/04/24 00:28:31;;;;;;;117.03;106.93;;;12.70;52.90;;;;;;5072401;28;20059;-75
2022/04/24 00:30:59;;;;;;;117.00;107.05;;;12.70;53.00;;;;;;5073916;28;20072;-75
2022/04/24 00:33:26;;;;;;;115.32;105.30;;;12.70;52.90;;;;;;5072421;28;20041;-74
2022/04/24 00:35:53;;;;;;;117.18;106.97;;;12.70;53.00;;;;;;5073271;28;20049;-74
2022/04/24 00:38:20;;;;;;;117.28;106.78;;;12.70;53.00;;;;;;5071570;28;20063;-74
2022/04/24 00:40:48;;;;;;;116.80;106.82;;;12.60;53.00;;;;;;5072026;28;20041;-74
2022/04/24 00:43:16;;;;;;;117.63;107.28;;;12.60;53.10;;;;;;5072390;28;20900;-75
2022/04/24 00:46:12;;;;;;;116.90;106.45;;;12.50;53.20;;;;;;5072235;28;20045;-75
2022/04/24 00:48:40;;;;;;;118.63;108.32;;;12.50;53.30;;;;;;5073315;28;20053;-75
2022/04/24 00:51:08;;;;;;;118.05;107.70;;;12.50;53.30;;;;;;5071908;28;20067;-74
2022/04/24 00:53:35;;;;;;;116.65;106.45;;;12.50;53.50;;;;;;5072180;28;20053;-75
2022/04/24 00:56:02;;;;;;;117.22;106.93;;;12.50;53.40;;;;;;5072519;28;20049;-75
2022/04/24 00:58:31;;;;;;;116.78;106.63;;;12.50;53.40;;;;;;5072004;28;20133;-74
2022/04/24 01:00:58;;;;;;;118.70;108.10;;;12.40;53.40;;;;;;5055078;28;20053;-74
2022/04/24 01:03:25;;;;;;;116.10;105.88;;;12.40;53.50;;;;;;5074498;28;20053;-74
2022/04/24 01:05:52;;;;;;;118.03;107.72;;;12.40;53.50;;;;;;5073665;28;20057;-75
2022/04/24 01:08:19;;;;;;;117.75;107.38;;;12.40;53.60;;;;;;5055065;28;20082;-74
2022/04/24 01:10:46;;;;;;;115.63;105.53;;;12.40;53.50;;;;;;5073478;28;20045;-74
2022/04/24 01:13:12;;;;;;;117.63;107.20;;;12.30;53.50;;;;;;5073286;28;20059;-74
2022/04/24 01:15:41;;;;;;;116.05;105.88;;;12.30;53.50;;;;;;5071408;28;20053;-74
2022/04/24 01:18:09;;;;;;;116.93;106.68;;;12.30;53.60;;;;;;5072803;28;20044;-74
2022/04/24 01:20:37;;;;;;;117.07;106.65;;;12.20;53.60;;;;;;5076222;28;20060;-75
2022/04/24 01:23:05;;;;;;;116.43;106.13;;;12.20;53.60;;;;;;5075131;28;20049;-74
2022/04/24 01:25:32;;;;;;;117.50;107.20;;;12.20;53.70;;;;;;5075022;28;20071;-74
2022/04/24 01:27:59;;;;;;;117.95;107.57;;;12.10;53.70;;;;;;5075962;28;20638;-74
2022/04/24 01:30:25;;;;;;;117.20;106.90;;;12.10;53.80;;;;;;5075168;28;20053;-75
2022/04/24 01:32:52;;;;;;;115.07;104.88;;;12.10;53.70;;;;;;5074921;28;20045;-74
2022/04/24 01:35:19;;;;;;;115.80;105.53;;;12.10;53.70;;;;;;5076466;28;20425;-75
2022/04/24 01:37:48;;;;;;;117.35;106.85;;;12.10;53.70;;;;;;5075186;28;20052;-74
2022/04/24 01:40:15;;;;;;;116.38;106.28;;;12.20;53.80;;;;;;5074899;28;20119;-74
2022/04/24 01:42:42;;;;;;;116.35;105.90;;;12.10;53.70;;;;;;5074788;28;20047;-74
2022/04/24 01:45:09;;;;;;;116.20;105.90;;;12.10;53.60;;;;;;5074844;28;20041;-75
2022/04/24 01:47:36;;;;;;;116.88;106.38;;;12.10;53.70;;;;;;5078112;28;20059;-75
2022/04/24 01:50:03;;;;;;;115.93;105.85;;;12.00;53.70;;;;;;5078426;28;20052;-74
2022/04/24 01:52:30;;;;;;;117.30;106.75;;;12.00;53.80;;;;;;5061341;28;20048;-75
2022/04/24 01:54:58;;;;;;;116.28;105.95;;;11.90;53.90;;;;;;5078098;28;20127;-75
2022/04/24 01:57:25;;;;;;;115.22;105.13;;;11.90;54.00;;;;;;5077804;28;20048;-74
2022/04/24 01:59:52;;;;;;;116.78;106.65;;;11.90;53.90;;;;;;5096489;28;20147;-74
2022/04/24 02:02:19;;;;;;;115.88;105.57;;;11.90;54.00;;;;;;5061480;28;20135;-74
2022/04/24 02:04:46;;;;;;;118.05;107.38;;;11.80;53.80;;;;;;5077857;28;20040;-74
2022/04/24 02:07:13;;;;;;;116.82;106.43;;;11.80;53.90;;;;;;5096059;28;20072;-75
2022/04/24 02:09:40;;;;;;;116.07;105.88;;;11.80;53.90;;;;;;5096312;28;20044;-75
2022/04/24 02:12:09;;;;;;;116.68;106.22;;;11.80;54.00;;;;;;5096272;28;20048;-75
2022/04/24 02:14:37;;;;;;;116.13;105.93;;;11.80;54.00;;;;;;5060708;28;20083;-74
2022/04/24 02:17:05;;;;;;;118.68;108.18;;;11.80;53.90;;;;;;5077559;28;20056;-74
2022/04/24 02:19:32;;;;;;;117.70;107.20;;;11.80;54.00;;;;;;5077846;28;20055;-74
2022/04/24 02:21:59;;;;;;;117.82;107.13;;;11.80;53.90;;;;;;5096043;28;20176;-74
2022/04/24 02:24:26;;;;;;;116.80;106.40;;;11.80;53.90;;;;;;5077664;28;20049;-74
2022/04/24 02:26:53;;;;;;;117.78;107.28;;;11.70;53.90;;;;;;5077703;28;20643;-74
2022/04/24 02:29:21;;;;;;;117.60;107.00;;;11.70;53.80;;;;;;5077544;28;20048;-74
2022/04/24 02:31:48;;;;;;;117.95;107.47;;;11.60;53.90;;;;;;5077698;28;20052;-74
2022/04/24 02:34:15;;;;;;;117.13;106.63;;;11.60;53.90;;;;;;5077590;28;20098;-74
2022/04/24 02:36:42;;;;;;;116.18;105.75;;;11.60;54.00;;;;;;5077391;28;20052;-74
2022/04/24 02:39:09;;;;;;;119.07;108.45;;;11.50;53.90;;;;;;5095341;28;20049;-74
2022/04/24 02:41:36;;;;;;;117.75;107.22;;;11.50;54.00;;;;;;5077350;28;20433;-74
2022/04/24 02:44:04;;;;;;;116.60;106.03;;;11.50;54.10;;;;;;5095821;28;20473;-74
2022/04/24 02:46:32;;;;;;;117.05;106.55;;;11.40;54.00;;;;;;5095655;28;20049;-74
2022/04/24 02:48:59;;;;;;;118.10;107.30;;;11.40;54.10;;;;;;5077176;28;20787;-74
2022/04/24 02:51:26;;;;;;;119.20;108.50;;;11.40;54.00;;;;;;5095050;28;20052;-74
2022/04/24 02:53:52;;;;;;;118.70;108.00;;;11.40;54.10;;;;;;5077365;28;20051;-74
2022/04/24 02:56:19;;;;;;;117.47;106.93;;;11.40;54.00;;;;;;5077282;28;20040;-74
2022/04/24 02:58:46;;;;;;;117.43;106.88;;;11.40;54.10;;;;;;5095526;28;20064;-74
2022/04/24 03:01:13;;;;;;;118.40;107.88;;;11.40;54.10;;;;;;5077281;28;20495;-74
2022/04/24 03:03:42;;;;;;;119.43;108.50;;;11.30;54.10;;;;;;5076793;28;20125;-74
2022/04/24 03:06:09;;;;;;;117.60;107.10;;;11.20;54.10;;;;;;5095467;28;20048;-74
2022/04/24 03:08:37;;;;;;;114.65;104.35;;;11.30;54.20;;;;;;5076772;28;20049;-75
2022/04/24 03:11:04;;;;;;;114.43;104.10;;;11.30;54.20;;;;;;5095695;28;20052;-75
2022/04/24 03:13:31;;;;;;;115.28;104.97;;;11.20;54.20;;;;;;5079526;28;20134;-75
2022/04/24 03:15:58;;;;;;;116.82;106.40;;;11.20;54.20;;;;;;5095188;28;20056;-74
2022/04/24 03:18:25;;;;;;;116.65;106.15;;;11.20;54.20;;;;;;5076565;28;20080;-74
2022/04/24 03:20:53;;;;;;;116.60;106.15;;;11.10;54.20;;;;;;5077196;28;20055;-75
2022/04/24 03:23:20;;;;;;;116.63;106.13;;;11.10;54.20;;;;;;5076731;28;20052;-75
2022/04/24 03:25:47;;;;;;;115.40;105.00;;;11.10;54.20;;;;;;5076975;28;20052;-74
2022/04/24 03:28:14;;;;;;;114.90;104.60;;;11.10;54.20;;;;;;5076274;28;20059;-74
2022/04/24 03:30:40;;;;;;;115.07;104.68;;;11.00;54.30;;;;;;5094102;28;20044;-74
2022/04/24 03:33:07;;;;;;;116.35;105.85;;;11.00;54.30;;;;;;5076528;28;20472;-74
2022/04/24 03:35:34;;;;;;;117.75;107.22;;;10.90;54.30;;;;;;5093043;28;20059;-74
2022/04/24 03:38:03;;;;;;;118.45;107.75;;;10.90;54.40;;;;;;5074620;28;20084;-74
2022/04/24 03:40:31;;;;;;;118.45;107.85;;;10.90;54.40;;;;;;5074678;28;20083;-74
2022/04/24 03:42:58;;;;;;;118.82;108.05;;;10.90;54.40;;;;;;5073659;28;20084;-74
2022/04/24 03:45:24;;;;;;;117.72;107.13;;;10.80;54.50;;;;;;5057582;28;20528;-74
2022/04/24 03:47:52;;;;;;;116.63;106.13;;;10.70;54.40;;;;;;5092293;28;20175;-74
2022/04/24 03:50:20;;;;;;;116.07;105.60;;;10.70;54.50;;;;;;5075550;28;20049;-74
2022/04/24 03:52:47;;;;;;;114.80;104.40;;;10.70;54.60;;;;;;5075588;28;20052;-74
2022/04/24 03:55:15;;;;;;;116.38;105.88;;;10.70;54.60;;;;;;5076258;28;20055;-75
2022/04/24 03:57:42;;;;;;;116.55;105.95;;;10.70;54.60;;;;;;5094178;28;20052;-74
2022/04/24 04:00:10;;;;;;;115.25;104.65;;;10.70;54.70;;;;;;5076149;28;20075;-74
2022/04/24 04:02:44;;;;;;;117.78;106.95;;;10.60;54.70;;;;;;5093066;28;20051;-74
2022/04/24 04:05:11;;;;;;;116.63;105.95;;;10.60;54.80;;;;;;5075516;28;20051;-74
2022/04/24 04:07:38;;;;;;;117.00;106.30;;;10.50;54.80;;;;;;5075780;28;20779;-74
2022/04/24 04:10:07;;;;;;;118.95;108.07;;;10.50;54.90;;;;;;5085118;28;20045;-74
2022/04/24 04:12:35;;;;;;;116.13;105.60;;;10.50;54.90;;;;;;5038995;28;20099;-74
2022/04/24 04:15:03;;;;;;;116.38;105.40;;;10.50;55.00;;;;;;5073670;28;20463;-74
2022/04/24 04:17:30;;;;;;;115.50;104.85;;;10.40;55.10;;;;;;5055149;28;20513;-74
2022/04/24 04:19:57;;;;;;;115.38;104.85;;;10.40;55.10;;;;;;5064248;28;20057;-74
2022/04/24 04:22:24;;;;;;;116.40;105.85;;;10.40;55.20;;;;;;5073574;28;20045;-74
2022/04/24 04:24:51;;;;;;;115.32;104.50;;;10.40;55.20;;;;;;5072291;28;20049;-74
2022/04/24 04:27:18;;;;;;;115.25;104.72;;;10.40;55.20;;;;;;5073140;28;20495;-74
2022/04/24 04:29:46;;;;;;;116.88;106.18;;;10.40;55.30;;;;;;5072051;28;20052;-74
2022/04/24 04:32:13;;;;;;;115.60;104.80;;;10.30;55.30;;;;;;5073518;28;20053;-74
2022/04/24 04:34:40;;;;;;;116.32;105.45;;;10.30;55.40;;;;;;5072338;28;20049;-74
2022/04/24 04:37:07;;;;;;;118.35;107.55;;;10.30;55.40;;;;;;5072304;28;20128;-74
2022/04/24 04:39:34;;;;;;;116.10;105.28;;;10.20;55.50;;;;;;5073548;28;20499;-74
2022/04/24 04:42:01;;;;;;;116.07;105.43;;;10.20;55.60;;;;;;5071678;28;20132;-74
2022/04/24 04:44:28;;;;;;;116.22;105.53;;;10.20;55.70;;;;;;5072475;28;20049;-74
2022/04/24 04:46:56;;;;;;;116.28;105.63;;;10.20;55.80;;;;;;5073465;28;20136;-74
2022/04/24 04:49:23;;;;;;;116.22;105.32;;;10.20;55.80;;;;;;5073562;28;20053;-74
2022/04/24 04:51:52;;;;;;;115.53;104.80;;;10.20;55.90;;;;;;5071979;28;20046;-74
2022/04/24 04:54:19;;;;;;;115.20;104.47;;;10.10;55.90;;;;;;5074736;28;20970;-74
2022/04/24 04:56:46;;;;;;;117.10;106.20;;;10.10;56.10;;;;;;5075667;28;20076;-74
2022/04/24 04:59:13;;;;;;;115.93;105.18;;;10.10;56.20;;;;;;5077010;28;20051;-74
2022/04/24 05:01:40;;;;;;;116.40;105.63;;;10.10;56.20;;;;;;5077050;28;20059;-74
2022/04/24 05:04:08;;;;;;;116.47;105.40;;;10.10;56.20;;;;;;5075431;28;20053;-74
2022/04/24 05:06:37;;;;;;;115.70;105.00;;;10.10;56.30;;;;;;5074996;28;20508;-74
2022/04/24 05:09:04;;;;;;;115.25;104.65;;;10.10;56.40;;;;;;5076549;28;20049;-74
2022/04/24 05:11:31;;;;;;;116.95;105.97;;;10.10;56.50;;;;;;5075412;28;20049;-74
2022/04/24 05:13:58;;;;;;;115.78;104.97;;;10.10;56.70;;;;;;5075497;28;20045;-74
2022/04/24 05:16:25;;;;;;;115.70;104.88;;;10.10;56.80;;;;;;5084171;22;20772;-74
2022/04/24 05:18:52;;;;;;;116.13;105.22;;;10.10;56.80;;;;;;4993108;28;20506;-74
2022/04/24 05:21:20;;;;;;;115.00;104.00;;;10.10;57.00;;;;;;4992371;28;20073;-74
2022/04/24 05:23:49;;;;;;;115.32;104.53;;;10.10;57.50;;;;;;4975821;28;20050;-74
2022/04/24 05:26:16;;;;;;;115.47;104.80;;;10.10;57.20;;;;;;4993697;28;20141;-74
2022/04/24 05:28:43;;;;;;;116.10;105.30;;;10.10;57.30;;;;;;4992158;28;20042;-74
2022/04/24 05:31:10;;;;;;;114.38;103.68;;;10.10;57.30;;;;;;4992367;28;20054;-74
2022/04/24 05:33:37;;;;;;;115.65;104.75;;;10.10;57.60;;;;;;4992222;28;20054;-74
2022/04/24 05:36:05;;;;;;;114.95;104.22;;;10.10;57.60;;;;;;4992474;28;20061;-74
2022/04/24 05:38:34;;;;;;;115.38;104.47;;;10.00;57.70;;;;;;4992094;28;20086;-73
2022/04/24 05:41:01;;;;;;;118.43;107.13;;;10.00;57.80;;;;;;4992257;28;20141;-74
2022/04/24 05:43:28;;;;;;;116.22;105.57;;;10.10;57.90;;;;;;5008513;28;20056;-74
2022/04/24 05:45:55;;;;;;;115.32;104.53;;;10.00;57.90;;;;;;5026882;28;20132;-74
2022/04/24 05:48:22;;;;;;;116.18;105.28;;;10.10;58.00;;;;;;5080788;28;20648;-74
2022/04/24 05:50:49;;;;;;;116.70;106.00;;;10.10;58.10;;;;;;5094047;28;20508;-74
2022/04/24 05:53:16;;;;;;;115.88;104.88;;;10.10;58.20;;;;;;5095744;28;20056;-74
2022/04/24 05:55:45;;;;;;;118.50;107.40;;;10.10;58.40;;;;;;5093643;28;20502;-74
2022/04/24 05:58:12;;;;;;;116.00;105.15;;;10.10;58.50;;;;;;5094531;28;20076;-74
2022/04/24 06:00:39;;;;;;;118.18;107.35;;;10.10;58.50;;;;;;5032019;28;20078;-74
2022/04/24 06:03:06;;;;;;;114.72;104.13;;;10.10;58.60;;;;;;5010132;28;20051;-74
2022/04/24 06:05:33;;;;;;;116.63;105.57;;;10.20;58.70;;;;;;5009694;28;20053;-74
2022/04/24 06:08:00;;;;;;;114.57;103.88;;;10.20;58.80;;;;;;5001647;28;20054;-74
2022/04/24 06:10:27;;;;;;;116.07;105.28;;;10.10;58.90;;;;;;5039154;28;20055;-76
2022/04/24 06:12:56;;;;;;;115.70;104.72;;;10.20;59.10;;;;;;4991777;28;20109;-75
2022/04/24 06:15:25;;;;;;;116.80;106.00;;;10.20;59.30;;;;;;5000432;28;20058;-75
2022/04/24 06:17:53;;;;;;;115.10;104.30;;;10.20;59.40;;;;;;5013766;28;20049;-73
2022/04/24 06:20:22;;;;;;;115.40;104.60;;;10.20;59.50;;;;;;5051503;28;20053;-73
2022/04/24 06:22:50;;;;;;;117.65;106.60;;;10.30;59.60;;;;;;5026184;28;20055;-74
2022/04/24 06:25:18;;;;;;;117.35;106.28;;;10.30;59.60;;;;;;5049898;28;20135;-74
2022/04/24 06:27:46;;;;;;;115.97;105.28;;;10.30;59.70;;;;;;5012914;28;20059;-73
2022/04/24 06:30:15;;;;;;;116.05;105.35;;;10.30;59.80;;;;;;4990217;28;20170;-72
2022/04/24 06:32:42;;;;;;;115.70;104.80;;;10.40;59.80;;;;;;4991969;28;20101;-73
2022/04/24 06:35:12;;;;;;;120.05;108.88;;;10.30;59.80;;;;;;4986158;28;20094;-72
2022/04/24 06:37:39;;;;;;;116.88;106.18;;;10.40;60.00;;;;;;4989084;28;20082;-73
2022/04/24 06:40:08;;;;;;;116.85;106.25;;;10.40;60.00;;;;;;4990410;28;20058;-73
2022/04/24 06:42:35;;;;;;;115.63;104.55;;;10.40;60.00;;;;;;4990276;28;20133;-72
2022/04/24 06:45:03;;;;;;;114.78;104.18;;;10.40;60.20;;;;;;4990852;28;20059;-72
2022/04/24 06:47:31;;;;;;;115.32;104.60;;;10.50;60.30;;;;;;4990990;28;20077;-74
2022/04/24 06:49:58;;;;;;;114.57;104.00;;;10.60;60.30;;;;;;4991356;28;20047;-75
2022/04/24 06:52:25;;;;;;;113.88;103.13;;;10.60;60.30;;;;;;4992023;28;20051;-73
2022/04/24 06:54:52;;;;;;;114.03;103.40;;;10.60;60.40;;;;;;4974942;28;20117;-75
2022/04/24 06:57:19;;;;;;;114.65;104.05;;;10.60;60.40;;;;;;4992254;28;20058;-73
2022/04/24 06:59:46;;;;;;;115.13;104.43;;;10.60;60.50;;;;;;4991297;28;20134;-72
2022/04/24 07:02:13;;;;;;;114.13;103.53;;;10.70;60.60;;;;;;4992684;28;20516;-75
2022/04/24 07:04:41;;;;;;;115.45;104.50;;;10.70;60.60;;;;;;4975007;28;20043;-78
2022/04/24 07:07:08;;;;;;;117.50;106.50;;;10.70;60.60;;;;;;4991278;28;20061;-73
2022/04/24 07:09:35;;;;;;;115.50;104.60;;;10.80;60.40;;;;;;4990931;28;20122;-73
2022/04/24 07:12:02;;;;;;;115.65;105.05;;;10.80;60.20;;;;;;4992552;28;20520;-77
2022/04/24 07:14:29;;;;;;;115.07;104.38;;;10.80;60.20;;;;;;4991489;28;20222;-73
2022/04/24 07:16:55;;;;;;;115.32;104.75;;;10.80;60.10;;;;;;4990677;28;20051;-74
2022/04/24 07:19:22;;;;;;;115.05;104.35;;;10.80;60.10;;;;;;4992236;28;20050;-74
2022/04/24 07:21:51;;;;;;;115.18;104.38;;;10.90;60.10;;;;;;5014251;28;20045;-77
2022/04/24 07:24:18;;;;;;;113.70;103.20;;;10.90;60.00;;;;;;5007739;28;20047;-78
2022/04/24 07:26:45;;;;;;;115.28;104.63;;;10.90;60.10;;;;;;5004120;28;20082;-75
2022/04/24 07:29:12;;;;;;;116.22;105.82;;;11.00;60.30;;;;;;5024242;28;20130;-77
2022/04/24 07:31:38;;;;;;;114.55;103.85;;;11.10;60.60;;;;;;5003489;28;20066;-77
2022/04/24 07:34:05;;;;;;;114.15;103.50;;;11.20;60.40;;;;;;5076001;28;20414;-76
2022/04/24 07:37:23;;;;;;;112.78;102.28;;;11.30;60.30;;;;;;5002127;28;20086;-73
2022/04/24 07:39:51;;;;;;;113.80;102.97;;;11.30;60.10;;;;;;5004156;28;20045;-80
2022/04/24 07:42:19;;;;;;;113.43;103.00;;;11.40;59.90;;;;;;5030091;28;20055;-75
2022/04/24 07:44:51;;;;;;;115.88;105.13;;;11.40;59.80;;;;;;5044882;28;20084;-75
2022/04/24 07:47:17;;;;;;;116.20;104.90;;;11.50;59.70;;;;;;5092310;28;20055;-74
2022/04/24 07:49:45;;;;;;;113.43;102.93;;;11.50;59.50;;;;;;5094324;28;20114;-74
2022/04/24 07:52:12;;;;;;;115.25;104.53;;;11.60;59.70;;;;;;5042068;28;20101;-75
2022/04/24 07:54:38;;;;;;;115.28;104.57;;;11.60;59.80;;;;;;4987272;28;20074;-75
2022/04/24 07:57:07;;;;;;;112.68;102.30;;;11.70;59.60;;;;;;4984919;28;20057;-74
2022/04/24 07:59:35;;;;;;;111.97;100.97;;;11.70;59.60;;;;;;4988852;28;20051;-75
2022/04/24 08:02:03;;;;;;;113.50;103.03;;;11.80;59.50;;;;;;4971623;28;20124;-74
2022/04/24 08:04:30;;;;;;;112.55;102.13;;;11.80;59.80;;;;;;4988440;28;20053;-76
2022/04/24 08:06:56;;;;;;;114.30;103.78;;;11.90;59.50;;;;;;4987434;28;20055;-74
2022/04/24 08:09:23;;;;;;;112.82;102.65;;;12.00;59.30;;;;;;4989830;28;20050;-75
2022/04/24 08:11:51;;;;;;;112.40;102.07;;;12.00;59.30;;;;;;4990798;28;20134;-75
2022/04/24 08:14:19;;;;;;;114.25;103.50;;;12.10;59.40;;;;;;4989556;28;20505;-74
2022/04/24 08:16:46;;;;;;;113.78;103.68;;;12.10;59.30;;;;;;4973101;28;20499;-74
2022/04/24 08:19:13;;;;;;;112.60;102.28;;;12.20;59.30;;;;;;4973588;28;20047;-74
2022/04/24 08:21:40;;;;;;;112.15;101.72;;;12.20;59.40;;;;;;4989899;28;20609;-74
2022/04/24 08:24:07;;;;;;;113.22;102.07;;;12.30;59.30;;;;;;4990330;28;20053;-74
2022/04/24 08:26:34;;;;;;;112.85;102.53;;;12.40;59.00;;;;;;4990107;28;20054;-74
2022/04/24 08:29:01;;;;;;;112.55;102.45;;;12.40;58.90;;;;;;4988999;28;20050;-74
2022/04/24 08:31:29;;;;;;;114.28;103.70;;;12.40;58.80;;;;;;4990394;28;20057;-74
2022/04/24 08:33:57;;;;;;;112.95;102.68;;;12.50;59.00;;;;;;4989565;28;20055;-74
2022/04/24 08:36:24;;;;;;;111.30;101.13;;;12.50;58.80;;;;;;4990183;28;20051;-74
2022/04/24 08:38:51;;;;;;;112.03;101.53;;;12.60;58.70;;;;;;4989918;28;20051;-74
2022/04/24 08:41:21;;;;;;;111.93;101.88;;;12.70;58.60;;;;;;4991218;28;20058;-74
2022/04/24 08:43:48;;;;;;;111.20;100.95;;;12.70;57.70;;;;;;4990240;28;20057;-74
2022/04/24 08:46:15;;;;;;;110.60;100.70;;;12.80;57.30;;;;;;4989105;28;20563;-75
2022/04/24 08:48:45;;;;;;;110.47;100.45;;;12.90;57.10;;;;;;4989996;28;20061;-75
2022/04/24 08:51:12;;;;;;;113.95;103.65;;;13.00;56.70;;;;;;4988531;28;20512;-75
2022/04/24 08:53:39;;;;;;;113.18;103.18;;;13.00;56.60;;;;;;4988784;28;20047;-74
2022/04/24 08:56:06;;;;;;;112.95;102.75;;;13.10;56.50;;;;;;4990453;28;20488;-75
2022/04/24 08:58:33;;;;;;;116.07;105.82;;;13.20;56.80;;;;;;4988944;28;20054;-75
2022/04/24 09:01:00;;;;;;;114.25;104.00;;;13.20;56.90;;;;;;4990091;28;20066;-74
2022/04/24 09:03:27;;;;;;;111.28;101.10;;;13.30;56.50;;;;;;4934154;28;20837;-74
2022/04/24 09:05:56;;;;;;;110.97;100.95;;;13.40;56.10;;;;;;5073636;28;20054;-74
2022/04/24 09:08:25;;;;;;;112.95;102.57;;;13.50;55.90;;;;;;5091312;28;20049;-74
2022/04/24 09:10:53;;;;;;;112.90;102.78;;;13.50;55.50;;;;;;5091413;28;20104;-74
2022/04/24 09:13:28;;;;;;;114.85;104.75;;;13.60;56.00;;;;;;5091568;28;20064;-74
2022/04/24 09:15:55;;;;;;;113.70;103.30;;;13.70;55.80;;;;;;5098053;28;20489;-78
2022/04/24 09:18:22;;;;;;;117.78;106.75;;;13.80;55.60;;;;;;5090466;28;20128;-75
2022/04/24 09:20:56;;;;;;;115.32;105.07;;;13.80;55.10;;;;;;5090176;28;20048;-75
2022/04/24 09:23:33;;;;;;;116.78;106.38;;;13.90;55.00;;;;;;5092242;28;20058;-75
2022/04/24 09:26:00;;;;;;;115.65;105.40;;;14.00;54.90;;;;;;5090999;28;20048;-75
2022/04/24 09:28:36;;;;;;;116.88;106.57;;;14.10;54.80;;;;;;5089855;28;20156;-77
2022/04/24 09:31:04;;;;;;;115.82;105.68;;;14.10;55.00;;;;;;5090929;28;20053;-80
2022/04/24 09:33:36;;;;;;;117.30;107.20;;;14.20;55.10;;;;;;5091423;28;20466;-79
2022/04/24 09:36:06;;;;;;;118.32;107.78;;;14.30;55.20;;;;;;5089924;28;20079;-78
2022/04/24 09:38:39;;;;;;;119.90;109.15;;;14.40;54.70;;;;;;5086401;28;20045;-77
2022/04/24 09:41:16;;;;;;;116.97;106.88;;;14.50;54.30;;;;;;5091351;28;20163;-77
2022/04/24 09:43:43;;;;;;;117.60;107.10;;;14.50;53.90;;;;;;5082403;28;20060;-77
2022/04/24 09:46:10;;;;;;;117.30;107.13;;;14.60;54.00;;;;;;5081989;28;21004;-77
2022/04/24 09:48:37;;;;;;;118.68;108.47;;;14.70;53.70;;;;;;5075935;28;20045;-77
2022/04/24 09:51:05;;;;;;;150.38;111.22;;;14.70;53.70;;;;;;5094000;28;20045;-77
2022/04/24 09:53:34;;;;;;;116.55;106.25;;;14.80;54.30;;;;;;5094426;28;20080;-78
2022/04/24 09:56:02;;;;;;;116.78;106.80;;;14.80;53.90;;;;;;5094680;28;20124;-78
2022/04/24 09:58:29;;;;;;;120.57;109.00;;;14.90;53.80;;;;;;5077269;28;20045;-77
2022/04/24 10:00:57;;;;;;;116.90;106.78;;;15.00;53.80;;;;;;5090749;28;20045;-77
2022/04/24 10:03:24;;;;;;;116.65;106.60;;;15.10;54.00;;;;;;5088849;28;20594;-75
2022/04/24 10:05:51;;;;;;;117.95;107.55;;;15.10;53.60;;;;;;5086684;28;20061;-75
2022/04/24 10:08:20;;;;;;;118.88;108.22;;;15.20;53.20;;;;;;5079470;28;20055;-75
2022/04/24 10:10:47;;;;;;;119.07;108.55;;;15.30;52.40;;;;;;5089714;28;20048;-76
2022/04/24 10:13:15;;;;;;;116.90;106.82;;;15.30;52.50;;;;;;5094060;28;20113;-75
2022/04/24 10:15:49;;;;;;;116.55;106.13;;;15.40;53.00;;;;;;5093527;28;20049;-76
2022/04/24 10:18:43;;;;;;;117.03;106.93;;;15.50;52.80;;;;;;5088912;28;20056;-76
2022/04/24 10:21:24;;;;;;;116.38;106.47;;;15.50;53.20;;;;;;5090581;28;20045;-76
2022/04/24 10:23:53;;;;;;;116.53;106.25;;;15.60;52.10;;;;;;5093162;28;20505;-75
2022/04/24 10:26:22;;;;;;;116.40;106.30;;;15.70;51.80;;;;;;5094135;28;20139;-75
2022/04/24 10:28:50;;;;;;;118.78;108.57;;;15.70;52.00;;;;;;5090731;28;20060;-76
2022/04/24 10:31:19;;;;;;;119.85;109.43;;;15.80;51.50;;;;;;5093441;28;20484;-76
2022/04/24 10:33:55;;;;;;;120.45;110.20;;;15.80;51.60;;;;;;5092478;28;20127;-75
2022/04/24 10:36:23;;;;;;;;;;;15.80;51.40;;;;;;5093162;28;20533;-75
2022/04/24 10:38:53;;;;;;;117.40;107.40;;;15.90;51.60;;;;;;5094507;28;19928;-75
2022/04/24 10:41:22;;;;;;;118.72;108.70;;;15.90;51.30;;;;;;5093269;28;20150;-75
2022/04/24 10:43:51;;;;;;;116.55;106.72;;;15.90;50.80;;;;;;5092836;28;20671;-76
2022/04/24 10:46:19;;;;;;;118.38;108.50;;;16.00;51.10;;;;;;5092733;28;20415;-75
2022/04/24 10:48:47;;;;;;;123.32;112.97;;;16.00;50.80;;;;;;5092714;28;20076;-75
2022/04/24 10:51:15;;;;;;;120.57;110.68;;;16.10;50.10;;;;;;5092696;28;20060;-76
2022/04/24 10:53:58;;;;;;;115.95;105.93;;;16.10;50.10;;;;;;5093161;28;20048;-77
2022/04/24 10:56:25;;;;;;;117.28;107.53;;;16.20;51.00;;;;;;5093304;28;20820;-77
2022/04/24 10:58:52;;;;;;;119.93;109.80;;;16.20;50.60;;;;;;5093058;28;20055;-78
2022/04/24 11:01:19;;;;;;;117.10;107.10;;;16.20;50.40;;;;;;5093050;28;20831;-77
2022/04/24 11:03:47;;;;;;;116.53;106.72;;;16.30;50.60;;;;;;5093765;28;20053;-81
2022/04/24 11:06:18;;;;;;;121.07;110.82;;;16.40;49.70;;;;;;5089980;28;20081;-80
2022/04/24 11:08:45;;;;;;;118.45;108.65;;;16.40;49.20;;;;;;5083780;28;20056;-78
2022/04/24 11:11:14;;;;;;;118.50;108.60;;;16.40;49.40;;;;;;5081697;28;20079;-78
2022/04/24 11:13:42;;;;;;;118.25;108.38;;;16.40;49.20;;;;;;5065640;28;20052;-77
2022/04/24 11:16:09;;;;;;;118.80;109.00;;;16.40;48.70;;;;;;5085065;28;20124;-76
2022/04/24 11:18:36;;;;;;;122.88;113.15;;;16.40;48.60;;;;;;5072420;28;20055;-76
2022/04/24 11:21:05;;;;;;;122.28;111.97;;;16.40;48.80;;;;;;5083203;28;20048;-76
2022/04/24 11:23:33;;;;;;;121.38;111.68;;;16.50;49.10;;;;;;5066130;28;20052;-75
2022/04/24 11:26:02;;;;;;;120.45;110.18;;;16.50;48.90;;;;;;5072376;28;20107;-76
2022/04/24 11:28:38;;;;;;;120.50;110.78;;;16.50;49.00;;;;;;5089469;28;20800;-75
2022/04/24 11:31:10;;;;;;;120.30;110.13;;;16.60;47.80;;;;;;5072412;28;20052;-76
2022/04/24 11:33:38;;;;;;;118.97;109.20;;;16.60;48.70;;;;;;5072721;28;20110;-76
2022/04/24 11:36:06;;;;;;;123.22;112.65;;;16.70;49.00;;;;;;5093102;28;20135;-75
2022/04/24 11:38:33;;;;;;;120.38;110.55;;;16.80;48.20;;;;;;5083681;28;20045;-75
2022/04/24 11:41:03;;;;;;;114.88;105.10;;;16.80;47.90;;;;;;5114193;22;21093;-76
2022/04/24 11:43:30;;;;;;;118.60;108.90;;;16.90;47.60;;;;;;5104987;27;20509;-75
2022/04/24 11:51:32;;;;;;;121.43;109.40;;;17.10;48.10;;;;;;5075856;28;20101;-76
2022/04/24 11:53:59;;;;;;;118.18;107.43;;;17.20;48.50;;;;;;5085375;28;20051;-75
2022/04/24 11:56:26;;;;;;;122.40;108.82;;;17.20;48.00;;;;;;5096064;28;20158;-75
2022/04/24 11:58:53;;;;;;;118.50;108.03;;;17.20;48.40;;;;;;5114038;28;20054;-75
2022/04/24 12:01:24;;;;;;;118.55;108.35;;;17.30;48.40;;;;;;5110613;28;20497;-76
2022/04/24 12:03:51;;;;;;;121.88;111.97;;;17.40;48.40;;;;;;5094999;28;20139;-75
2022/04/24 12:06:17;;;;;;;121.25;108.72;;;17.50;48.30;;;;;;5113963;28;20047;-75
2022/04/24 12:08:46;;;;;;;115.32;106.00;;;17.50;47.10;;;;;;5113221;28;20051;-76
2022/04/24 12:11:24;;;;;;;128.27;118.18;;;17.60;47.10;;;;;;5095362;28;20504;-75
2022/04/24 12:14:00;;;;;;;119.45;109.50;;;17.60;47.70;;;;;;5076334;28;20056;-76
2022/04/24 12:16:28;;;;;;;121.05;111.35;;;17.60;48.50;;;;;;5093592;28;20056;-76
2022/04/24 12:18:56;;;;;;;262.88;119.43;;;17.60;48.50;;;;;;5095105;28;20120;-76